Time;durP1;ratioP1;P1;durP2;ratioP2;P2;SDS_P1;SDS_P2;PMS_P1;PMS_P2;Temp;Humidity;BMP_temperature;BMP_pressure;BME280_temperature;BME280_humidity;BME280_pressure;Samples;Min_cycle;Max_cycle;Signal;HPM_P1;HPM_P2
2022/01/15 00:01:32;;;;;;;;;;;;;;;-1.85;100.00;102282.66;5032546;28;1413;-75
2022/01/15 00:03:58;;;;;;;;;;;;;;;-1.89;100.00;102289.75;5032788;28;1152;-74
2022/01/15 00:06:24;;;;;;;;;;;;;;;-1.93;100.00;102296.00;5032523;28;1036;-74
2022/01/15 00:08:51;;;;;;;;;;;;;;;-1.99;100.00;102295.13;5032038;28;1976;-75
2022/01/15 00:11:17;;;;;;;;;;;;;;;-2.02;100.00;102288.03;5032142;28;1313;-74
2022/01/15 00:13:51;;;;;;;;;;;;;;;-2.03;100.00;102294.28;5032469;28;687;-74
2022/01/15 00:16:29;;;;;;;;;;;;;;;-2.09;100.00;102294.28;5031673;28;833;-74
2022/01/15 00:19:05;;;;;;;;;;;;;;;-2.15;100.00;102288.97;5031835;28;761;-75
2022/01/15 00:21:31;;;;;;;;;;;;;;;-2.13;100.00;102288.09;5031519;28;1429;-74
2022/01/15 00:23:57;;;;;;;;;;;;;;;-2.14;100.00;102293.41;5031127;28;1233;-74
2022/01/15 00:26:24;;;;;;;;;;;;;;;-2.12;100.00;102292.53;5031658;28;796;-74
2022/01/15 00:28:50;;;;;;;;;;;;;;;-2.12;100.00;102300.50;5029860;28;1918;-75
2022/01/15 00:31:16;;;;;;;;;;;;;;;-2.14;100.00;102298.75;5031303;28;1315;-75
2022/01/15 00:33:42;;;;;;;;;;;;;;;-2.20;100.00;102292.53;5031186;28;784;-75
2022/01/15 00:36:10;;;;;;;;;;;;;;;-2.16;100.00;102293.44;5029685;28;903;-74
2022/01/15 00:38:36;;;;;;;;;;;;;;;-2.06;100.00;102294.28;5031476;28;907;-74
2022/01/15 00:41:02;;;;;;;;;;;;;;;-1.99;100.00;102285.41;5029947;28;1276;-75
2022/01/15 00:43:29;;;;;;;;;;;;;;;-2.02;100.00;102291.59;5030195;28;997;-75
2022/01/15 00:45:55;;;;;;;;;;;;;;;-2.12;100.00;102292.53;5031403;28;824;-75
2022/01/15 00:48:22;;;;;;;;;;;;;;;-2.19;100.00;102302.31;5030020;28;1915;-75
2022/01/15 00:50:48;;;;;;;;;;;;;;;-2.27;100.00;102289.91;5028262;28;1520;-75
2022/01/15 00:53:16;;;;;;;;;;;;;;;-2.31;100.00;102282.81;5013548;28;736;-75
2022/01/15 00:55:42;;;;;;;;;;;;;;;-2.33;100.00;102289.94;5011051;28;1028;-75
2022/01/15 00:58:08;;;;;;;;;;;;;;;-2.37;100.00;102281.06;5011418;28;839;-76
2022/01/15 01:00:35;;;;;;;;;;;;;;;-2.41;100.00;102282.84;5011166;28;1393;-74
2022/01/15 01:03:01;;;;;;;;;;;;;;;-2.46;100.00;102283.75;5011405;28;1072;-75
2022/01/15 01:05:27;;;;;;;;;;;;;;;-2.48;100.00;102281.09;5011099;28;829;-75
2022/01/15 01:07:54;;;;;;;;;;;;;;;-2.43;100.00;102284.63;5010969;28;1911;-75
2022/01/15 01:10:48;;;;;;;;;;;;;;;-2.39;100.00;102285.53;5012341;28;1334;-75
2022/01/15 01:13:32;;;;;;;;;;;;;;;-2.43;100.00;102279.31;5011399;28;820;-74
2022/01/15 01:24:09;;;;;;;;;;;;;;;-2.56;100.00;102266.94;5009910;28;1200;-75
2022/01/15 01:26:44;;;;;;;;;;;;;;;-2.39;100.00;102256.25;5030619;28;961;-75
2022/01/15 01:29:21;;;;;;;;;;;;;;;-2.28;100.00;102266.88;5030206;28;1918;-74
2022/01/15 01:31:57;;;;;;;;;;;;;;;-2.17;100.00;102265.03;5030467;28;990;-74
2022/01/15 01:34:25;;;;;;;;;;;;;;;-2.07;100.00;102276.53;5030200;28;1002;-75
2022/01/15 01:36:59;;;;;;;;;;;;;;;-2.10;100.00;102282.78;5030497;28;907;-75
2022/01/15 01:39:35;;;;;;;;;;;;;;;-2.15;100.00;102283.66;5030247;28;1338;-75
2022/01/15 01:42:10;;;;;;;;;;;;;;;-2.23;100.00;102276.59;5012461;28;1261;-75
2022/01/15 01:44:40;;;;;;;;;;;;;;;-2.29;100.00;102271.28;5030183;28;955;-75
2022/01/15 01:47:16;;;;;;;;;;;;;;;-2.36;100.00;102270.41;5029218;28;1018;-75
2022/01/15 01:49:43;;;;;;;;;;;;;;;-2.36;100.00;102272.22;5016711;28;1922;-75
2022/01/15 01:52:10;;;;;;;;;;;;;;;-2.32;100.00;102260.66;5033208;28;954;-75
2022/01/15 01:54:36;;;;;;;;;;;;;;;-2.21;100.00;102269.47;5034288;28;1042;-75
2022/01/15 01:57:04;;;;;;;;;;;;;;;-2.24;100.00;102269.50;5034348;28;990;-75
2022/01/15 01:59:30;;;;;;;;;;;;;;;-2.24;100.00;102272.16;5034196;28;1341;-75
2022/01/15 02:01:57;;;;;;;;;;;;;;;-2.24;100.00;102273.94;5032734;28;899;-74
2022/01/15 02:04:23;;;;;;;;;;;;;;;-2.30;100.00;102281.94;5034109;28;982;-75
2022/01/15 02:06:50;;;;;;;;;;;;;;;-2.36;100.00;102277.53;5033984;28;907;-75
2022/01/15 02:09:17;;;;;;;;;;;;;;;-2.38;100.00;102266.00;5033978;28;1934;-75
2022/01/15 02:11:44;;;;;;;;;;;;;;;-2.42;100.00;102266.88;5032780;28;1320;-75
2022/01/15 02:14:24;;;;;;;;;;;;;;;-2.40;100.00;102268.66;5033818;28;982;-74
2022/01/15 02:16:50;;;;;;;;;;;;;;;-2.42;100.00;102265.13;5033527;28;1053;-75
2022/01/15 02:19:16;;;;;;;;;;;;;;;-2.53;100.00;102262.47;5032892;28;1314;-74
2022/01/15 02:24:28;;;;;;;;;;;;;;;-2.70;100.00;102259.88;5032603;28;1198;-76
2022/01/15 02:26:55;;;;;;;;;;;;;;;-2.74;100.00;102262.50;5033900;28;903;-75
2022/01/15 02:29:21;;;;;;;;;;;;;;;-2.78;100.00;102263.41;5034322;28;1977;-75
2022/01/15 02:31:47;;;;;;;;;;;;;;;-2.86;100.00;102258.09;5034806;28;1009;-74
2022/01/15 02:34:14;;;;;;;;;;;;;;;-2.90;100.00;102258.97;5034269;28;1048;-76
2022/01/15 02:36:40;;;;;;;;;;;;;;;-2.82;100.00;102258.97;5031998;28;1073;-75
2022/01/15 02:39:07;;;;;;;;;;;;;;;-2.72;100.00;102263.41;5033837;28;1048;-76
2022/01/15 02:41:35;;;;;;;;;;;;;;;-2.72;100.00;102263.41;5033524;28;819;-74
2022/01/15 02:44:02;;;;;;;;;;;;;;;-2.75;100.00;102256.31;5033380;28;986;-75
2022/01/15 02:48:00;;;;;;;;;;;;;;;-2.78;100.00;102255.44;5033543;28;840;-75
2022/01/15 02:49:22;;;;;;;;;;;;;;;-2.84;100.00;102258.13;5033368;28;1887;-75
2022/01/15 02:51:48;;;;;;;;;;;;;;;-2.91;100.00;102246.59;5032253;28;804;-75
2022/01/15 02:54:15;;;;;;;;;;;;;;;-2.94;100.00;102254.56;5015305;28;1225;-75
2022/01/15 02:56:43;;;;;;;;;;;;;;;-2.95;100.00;102251.03;5033689;28;990;-76
2022/01/15 02:59:11;;;;;;;;;;;;;;;-2.84;100.00;102252.81;5031200;28;1483;-74
2022/01/15 03:01:37;;;;;;;;;;;;;;;-2.76;100.00;102248.34;5014191;28;1516;-76
2022/01/15 03:04:03;;;;;;;;;;;;;;;-2.79;100.00;102258.97;5013464;28;871;-76
2022/01/15 03:06:30;;;;;;;;;;;;;;;-2.82;100.00;102251.88;5012092;28;915;-76
2022/01/15 03:08:56;;;;;;;;;;;;;;;-2.86;100.00;102252.78;5011897;28;1918;-76
2022/01/15 03:11:24;;;;;;;;;;;;;;;-2.93;100.00;102245.72;5012894;28;1328;-76
2022/01/15 03:13:50;;;;;;;;;;;;;;;-2.91;100.00;102250.13;5012886;28;1065;-76
2022/01/15 03:16:18;;;;;;;;;;;;;;;-2.83;100.00;102250.13;5013099;28;1146;-75
2022/01/15 03:18:44;;;;;;;;;;;;;;;-2.80;100.00;102252.78;5011772;28;943;-76
2022/01/15 03:21:11;;;;;;;;;;;;;;;-2.83;100.00;102251.88;5012107;28;1418;-76
2022/01/15 03:23:38;;;;;;;;;;;;;;;-2.88;100.00;102242.16;5011747;28;1018;-76
2022/01/15 03:26:04;;;;;;;;;;;;;;;-2.91;100.00;102242.16;5030815;28;1183;-76
2022/01/15 03:28:32;;;;;;;;;;;;;;;-2.86;100.00;102237.72;5031080;28;1907;-76
2022/01/15 03:30:58;;;;;;;;;;;;;;;-2.89;100.00;102237.72;5032706;28;1309;-76
2022/01/15 03:33:24;;;;;;;;;;;;;;;-2.88;100.00;102246.59;5032774;28;899;-76
2022/01/15 03:35:51;;;;;;;;;;;;;;;-2.94;100.00;102244.84;5032615;28;1046;-77
2022/01/15 03:38:17;;;;;;;;;;;;;;;-2.99;100.00;102235.97;5032532;28;971;-76
2022/01/15 03:40:43;;;;;;;;;;;;;;;-2.98;100.00;102240.41;5032426;28;1319;-76
2022/01/15 03:43:10;;;;;;;;;;;;;;;-3.03;100.00;102229.78;5031146;28;848;-76
2022/01/15 03:45:37;;;;;;;;;;;;;;;-3.08;100.00;102215.59;5032016;28;855;-76
2022/01/15 03:48:04;;;;;;;;;;;;;;;-3.10;100.00;102214.72;5032434;28;1910;-76
2022/01/15 03:50:30;;;;;;;;;;;;;;;-3.11;100.00;102212.94;5032160;28;1325;-76
2022/01/15 03:52:57;;;;;;;;;;;;;;;-3.11;100.00;102214.75;5032269;28;958;-76
2022/01/15 03:55:25;;;;;;;;;;;;;;;-3.10;100.00;102206.75;5031837;28;825;-76
2022/01/15 03:57:51;;;;;;;;;;;;;;;-3.05;100.00;102209.41;5032178;28;907;-76
2022/01/15 04:00:19;;;;;;;;;;;;;;;-2.96;100.00;102212.03;5031886;28;1356;-76
2022/01/15 04:02:48;;;;;;;;;;;;;;;-2.88;100.00;102212.91;5031870;28;1045;-76
2022/01/15 04:05:15;;;;;;;;;;;;;;;-2.77;100.00;102210.22;5030661;28;1037;-76
2022/01/15 04:07:41;;;;;;;;;;;;;;;-2.67;100.00;102205.81;5032916;28;899;-76
2022/01/15 04:10:09;;;;;;;;;;;;;;;-2.56;100.00;102203.97;5031742;28;2041;-76
2022/01/15 04:12:35;;;;;;;;;;;;;;;-2.48;100.00;102205.75;5029490;28;1317;-76
2022/01/15 04:15:01;;;;;;;;;;;;;;;-2.37;100.00;102198.59;5031495;28;898;-76
2022/01/15 04:17:27;;;;;;;;;;;;;;;-2.24;100.00;102195.00;5030454;28;1006;-75
2022/01/15 04:19:55;;;;;;;;;;;;;;;-2.13;100.00;102191.41;5031629;28;1393;-76
2022/01/15 04:22:22;;;;;;;;;;;;;;;-2.00;100.00;102186.88;5029923;28;769;-74
2022/01/15 04:24:48;;;;;;;;;;;;;;;-1.86;100.00;102180.63;5031340;28;1355;-75
2022/01/15 04:27:14;;;;;;;;;;;;;;;-1.73;100.00;102176.06;5031513;28;1064;-75
2022/01/15 04:29:41;;;;;;;;;;;;;;;-1.57;100.00;102171.53;5030090;28;1914;-76
2022/01/15 04:32:07;;;;;;;;;;;;;;;-1.40;100.00;102179.41;5031476;28;840;-76
2022/01/15 04:34:34;;;;;;;;;;;;;;;-1.26;100.00;102173.06;5031128;28;998;-76
2022/01/15 04:37:06;;;;;;;;;;;;;;;-1.15;100.00;102184.50;5031504;28;788;-76
2022/01/15 04:39:32;;;;;;;;;;;;;;;-1.08;100.00;102174.66;5031132;28;1312;-76
2022/01/15 04:41:59;;;;;;;;;;;;;;;-1.05;100.00;102180.84;5031337;28;763;-76
2022/01/15 04:44:25;;;;;;;;;;;;;;;-1.00;100.00;102172.84;5030823;28;815;-76
2022/01/15 04:46:52;;;;;;;;;;;;;;;-0.99;100.00;102176.38;5031415;28;808;-76
2022/01/15 04:49:18;;;;;;;;;;;;;;;-0.97;100.00;102183.47;5029655;28;1914;-75
2022/01/15 04:51:45;;;;;;;;;;;;;;;-0.96;100.00;102189.66;5031609;28;722;-76
2022/01/15 04:54:12;;;;;;;;;;;;;;;-0.95;100.00;102188.75;5029625;28;1147;-76
2022/01/15 04:56:39;;;;;;;;;;;;;;;-0.94;100.00;102194.09;5031302;28;851;-76
2022/01/15 04:59:05;;;;;;;;;;;;;;;-0.95;100.00;102186.09;5031092;28;982;-76
2022/01/15 05:01:31;;;;;;;;;;;;;;;-0.96;100.00;102203.91;5029569;28;1257;-76
2022/01/15 05:03:57;;;;;;;;;;;;;;;-0.94;100.00;102199.41;5029475;28;1244;-76
2022/01/15 05:06:24;;;;;;;;;;;;;;;-0.88;100.00;102202.03;5020976;28;1534;-76
2022/01/15 05:08:56;;;;;;;;;;;;;;;-0.91;100.00;102202.06;5011458;28;1973;-75
2022/01/15 05:11:30;;;;;;;;;;;;;;;-0.92;100.00;102197.63;5011406;28;1352;-76
2022/01/15 05:13:57;;;;;;;;;;;;;;;-0.94;100.00;102196.75;5011297;28;1003;-76
2022/01/15 05:16:23;;;;;;;;;;;;;;;-0.92;100.00;102202.06;5011033;28;828;-76
2022/01/15 05:18:49;;;;;;;;;;;;;;;-0.89;100.00;102196.72;5009732;28;1128;-75
2022/01/15 05:21:16;;;;;;;;;;;;;;;-0.88;100.00;102195.81;5011079;28;1364;-75
2022/01/15 05:23:42;;;;;;;;;;;;;;;-0.88;100.00;102203.81;5011398;28;824;-74
2022/01/15 05:26:09;;;;;;;;;;;;;;;-0.83;100.00;102209.09;5027565;28;1207;-75
2022/01/15 05:28:37;;;;;;;;;;;;;;;-0.83;100.00;102217.09;5030728;28;1985;-75
2022/01/15 05:31:03;;;;;;;;;;;;;;;-0.80;100.00;102217.06;5028424;28;2404;-76
2022/01/15 05:33:29;;;;;;;;;;;;;;;-0.77;100.00;102209.03;5027867;28;1725;-76
2022/01/15 05:35:56;;;;;;;;;;;;;;;-0.79;100.00;102219.69;5028786;28;1111;-74
2022/01/15 05:38:22;;;;;;;;;;;;;;;-0.78;100.00;102220.59;5028852;28;1389;-76
2022/01/15 05:40:48;;;;;;;;;;;;;;;-0.82;100.00;102224.19;5029097;22;3576;-74
2022/01/15 05:43:14;;;;;;;;;;;;;;;-0.85;100.00;102219.78;4992801;28;1146;-73
2022/01/15 05:45:42;;;;;;;;;;;;;;;-0.83;100.00;102223.31;5009583;28;1336;-74
2022/01/15 05:48:08;;;;;;;;;;;;;;;-0.81;100.00;102221.53;5020700;28;1290;-73
2022/01/15 05:50:35;;;;;;;;;;;;;;;-0.82;100.00;102224.19;5018509;28;1960;-75
2022/01/15 05:53:01;;;;;;;;;;;;;;;-0.86;100.00;102216.22;5008942;28;1554;-74
2022/01/15 05:55:27;;;;;;;;;;;;;;;-0.86;100.00;102208.22;5008478;28;1496;-73
2022/01/15 05:57:54;;;;;;;;;;;;;;;-0.85;100.00;102206.44;5009551;28;1097;-74
2022/01/15 06:00:20;;;;;;;;;;;;;;;-0.83;100.00;102215.31;5009215;28;1591;-74
2022/01/15 06:02:47;;;;;;;;;;;;;;;-0.80;100.00;102212.63;5010118;28;1846;-73
2022/01/15 06:05:14;;;;;;;;;;;;;;;-0.77;100.00;102206.38;5010467;28;1140;-74
2022/01/15 06:07:40;;;;;;;;;;;;;;;-0.80;100.00;102207.28;5009023;28;1561;-73
2022/01/15 06:10:07;;;;;;;;;;;;;;;-0.79;100.00;102205.50;5006704;28;1977;-74
2022/01/15 06:12:41;;;;;;;;;;;;;;;-0.77;100.00;102211.72;5011528;28;1570;-74
2022/01/15 06:15:08;;;;;;;;;;;;;;;-0.76;100.00;102213.47;5029591;28;624;-73
2022/01/15 06:17:34;;;;;;;;;;;;;;;-0.72;100.00;102213.44;5014017;28;1478;-73
2022/01/15 06:20:02;;;;;;;;;;;;;;;-0.71;100.00;102203.63;5029914;28;1317;-73
2022/01/15 06:22:28;;;;;;;;;;;;;;;-0.69;100.00;102204.50;5021741;28;1189;-73
2022/01/15 06:24:55;;;;;;;;;;;;;;;-0.70;100.00;102194.72;5023448;28;1323;-73
2022/01/15 06:27:21;;;;;;;;;;;;;;;-0.69;100.00;102193.84;5021602;28;1132;-74
2022/01/15 06:29:47;;;;;;;;;;;;;;;-0.68;100.00;102195.63;5018932;28;1911;-72
2022/01/15 06:32:14;;;;;;;;;;;;;;;-0.64;100.00;102210.69;5019286;28;1314;-73
2022/01/15 06:34:40;;;;;;;;;;;;;;;-0.63;100.00;102207.09;5020035;28;1671;-77
2022/01/15 06:37:07;;;;;;;;;;;;;;;-0.59;100.00;102215.97;5023868;28;1335;-78
2022/01/15 06:39:34;;;;;;;;;;;;;;;-0.60;100.00;102215.09;5022782;28;1260;-75
2022/01/15 06:42:01;;;;;;;;;;;;;;;-0.61;100.00;102218.66;5022537;28;1405;-76
2022/01/15 06:44:27;;;;;;;;;;;;;;;-0.59;100.00;102229.28;5015857;28;1271;-74
2022/01/15 06:46:54;;;;;;;;;;;;;;;-0.59;100.00;102232.88;5012201;28;912;-73
2022/01/15 06:49:21;;;;;;;;;;;;;;;-0.63;100.00;102235.56;5011848;28;1985;-72
2022/01/15 06:51:47;;;;;;;;;;;;;;;-0.61;100.00;102236.44;5011688;28;1313;-74
2022/01/15 06:54:15;;;;;;;;;;;;;;;-0.61;100.00;102225.78;5011721;28;951;-72
2022/01/15 06:56:41;;;;;;;;;;;;;;;-0.60;100.00;102228.41;5011588;28;1413;-75
2022/01/15 06:59:07;;;;;;;;;;;;;;;-0.57;100.00;102239.03;5012055;28;856;-75
2022/01/15 07:01:34;;;;;;;;;;;;;;;-0.57;100.00;102240.84;5011789;28;1474;-72
2022/01/15 07:04:00;;;;;;;;;;;;;;;-0.59;100.00;102230.19;5012791;28;891;-71
2022/01/15 07:06:26;;;;;;;;;;;;;;;-0.59;100.00;102240.88;5012380;28;1522;-73
2022/01/15 07:08:52;;;;;;;;;;;;;;;-0.55;100.00;102239.94;5012762;28;784;-73
2022/01/15 07:11:20;;;;;;;;;;;;;;;-0.52;100.00;102241.69;5010673;28;1918;-72
2022/01/15 07:13:46;;;;;;;;;;;;;;;-0.49;100.00;102232.72;5012496;28;1496;-72
2022/01/15 07:16:13;;;;;;;;;;;;;;;-0.49;100.00;102243.41;5012576;28;788;-72
2022/01/15 07:18:39;;;;;;;;;;;;;;;-0.44;100.00;102253.16;5012307;28;1518;-71
2022/01/15 07:21:05;;;;;;;;;;;;;;;-0.41;100.00;102263.78;5019785;28;1597;-73
2022/01/15 07:23:31;;;;;;;;;;;;;;;-0.42;100.00;102264.69;5027291;28;1544;-73
2022/01/15 07:25:58;;;;;;;;;;;;;;;-0.40;100.00;102268.22;5011420;28;1550;-72
2022/01/15 07:28:27;;;;;;;;;;;;;;;-0.36;100.00;102267.28;5011292;28;1543;-73
2022/01/15 07:30:53;;;;;;;;;;;;;;;-0.38;100.00;102274.41;5012479;28;1919;-72
2022/01/15 07:33:20;;;;;;;;;;;;;;;-0.39;100.00;102278.00;5012496;28;1578;-73
2022/01/15 07:35:46;;;;;;;;;;;;;;;-0.37;100.00;102280.66;5012357;28;1050;-72
2022/01/15 07:38:13;;;;;;;;;;;;;;;-0.35;100.00;102276.16;5011953;28;1565;-73
2022/01/15 07:40:39;;;;;;;;;;;;;;;-0.38;100.00;102282.41;5012158;28;1813;-72
2022/01/15 07:43:05;;;;;;;;;;;;;;;-0.36;100.00;102295.75;5009224;28;1590;-72
2022/01/15 07:45:33;;;;;;;;;;;;;;;-0.36;100.00;102295.75;5011134;28;1479;-72
2022/01/15 07:47:59;;;;;;;;;;;;;;;-0.33;100.00;102287.72;5011185;28;998;-73
2022/01/15 07:50:26;;;;;;;;;;;;;;;-0.31;100.00;102285.91;5011922;28;1916;-72
2022/01/15 07:52:52;;;;;;;;;;;;;;;-0.29;100.00;102289.47;5011961;28;1494;-73
2022/01/15 07:55:19;;;;;;;;;;;;;;;-0.32;100.00;102283.25;5010878;28;1023;-72
2022/01/15 07:57:45;;;;;;;;;;;;;;;-0.33;100.00;102287.72;5012868;28;1550;-73
2022/01/15 08:00:12;;;;;;;;;;;;;;;-0.35;100.00;102278.84;5010947;28;1400;-73
2022/01/15 08:02:40;;;;;;;;;;;;;;;-0.29;100.00;102284.13;5011240;28;1554;-72
2022/01/15 08:05:07;;;;;;;;;;;;;;;-0.26;100.00;102281.41;5011289;28;1474;-71
2022/01/15 08:07:33;;;;;;;;;;;;;;;-0.25;100.00;102279.63;5011875;28;1510;-73
2022/01/15 08:10:00;;;;;;;;;;;;;;;-0.28;100.00;102288.56;4994411;28;1915;-72
2022/01/15 08:12:26;;;;;;;;;;;;;;;-0.28;100.00;102288.56;5011892;28;1557;-74
2022/01/15 08:14:55;;;;;;;;;;;;;;;-0.28;100.00;102282.31;5011408;28;1585;-72
2022/01/15 08:17:21;;;;;;;;;;;;;;;-0.29;100.00;102284.13;5012001;28;950;-74
2022/01/15 08:19:49;;;;;;;;;;;;;;;-0.23;100.00;102286.72;5011929;28;1507;-73
2022/01/15 08:22:15;;;;;;;;;;;;;;;-0.21;100.00;102284.03;5011725;28;831;-74
2022/01/15 08:24:41;;;;;;;;;;;;;;;-0.24;100.00;102284.94;5011394;28;1530;-72
2022/01/15 08:27:08;;;;;;;;;;;;;;;-0.31;100.00;102290.38;5010940;28;1617;-72
2022/01/15 08:29:34;;;;;;;;;;;;;;;-0.29;100.00;102291.25;5011325;28;1916;-73
2022/01/15 08:32:00;;;;;;;;;;;;;;;-0.23;100.00;102288.50;5011251;28;1491;-73
2022/01/15 08:34:26;;;;;;;;;;;;;;;-0.23;100.00;102288.50;5011319;28;907;-74
2022/01/15 08:36:54;;;;;;;;;;;;;;;-0.21;100.00;102289.38;5011565;28;974;-74
2022/01/15 08:39:20;;;;;;;;;;;;;;;-0.17;100.00;102283.09;5011239;28;1041;-74
2022/01/15 08:41:48;;;;;;;;;;;;;;;-0.15;100.00;102291.09;5011240;28;1396;-74
2022/01/15 08:44:14;;;;;;;;;;;;;;;-0.12;100.00;102291.03;5010871;28;809;-74
2022/01/15 08:46:40;;;;;;;;;;;;;;;-0.10;100.00;102289.25;5011372;28;847;-73
2022/01/15 08:49:07;;;;;;;;;;;;;;;-0.08;100.00;102291.00;5009752;28;1279;-74
2022/01/15 08:51:33;;;;;;;;;;;;;;;-0.06;100.00;102293.66;5011010;28;1969;-74
2022/01/15 08:54:00;;;;;;;;;;;;;;;-0.02;100.00;102298.03;5011126;28;1041;-75
2022/01/15 08:56:27;;;;;;;;;;;;;;;0.03;100.00;102298.88;4993410;28;1164;-75
2022/01/15 08:58:53;;;;;;;;;;;;;;;-0.04;100.00;102306.09;5009712;28;823;-74
2022/01/15 09:01:19;;;;;;;;;;;;;;;-0.09;100.00;102307.03;5011051;28;1326;-75
2022/01/15 09:03:46;;;;;;;;;;;;;;;-0.10;100.00;102313.28;5010967;28;1294;-74
2022/01/15 09:06:13;;;;;;;;;;;;;;;-0.07;100.00;102313.22;5010482;28;960;-74
2022/01/15 09:08:39;;;;;;;;;;;;;;;-0.06;100.00;102307.00;5009738;28;932;-74
2022/01/15 09:11:07;;;;;;;;;;;;;;;0.00;100.00;102306.94;5010751;28;1980;-74
2022/01/15 09:13:33;;;;;;;;;;;;;;;0.07;100.00;102313.09;5009659;28;946;-77
2022/01/15 09:16:01;;;;;;;;;;;;;;;0.08;100.00;102315.75;5010170;28;998;-76
2022/01/15 09:18:29;;;;;;;;;;;;;;;0.07;100.00;102316.63;5010654;28;800;-74
2022/01/15 09:20:55;;;;;;;;;;;;;;;0.08;100.00;102318.41;5010476;28;1406;-78
2022/01/15 09:23:22;;;;;;;;;;;;;;;0.09;100.00;102325.50;5008752;28;1520;-74
2022/01/15 09:25:49;;;;;;;;;;;;;;;0.04;100.00;102324.69;5010517;28;801;-74
2022/01/15 09:31:01;;;;;;;;;;;;;;;-0.03;100.00;102322.97;5030414;28;1991;-75
2022/01/15 09:33:27;;;;;;;;;;;;;;;0.01;100.00;102326.50;5030583;28;951;-75
2022/01/15 09:35:53;;;;;;;;;;;;;;;0.02;100.00;102331.81;5029030;28;971;-75
2022/01/15 09:38:21;;;;;;;;;;;;;;;-0.04;100.00;102330.13;5030420;28;872;-75
2022/01/15 09:40:47;;;;;;;;;;;;;;;0.06;100.00;102330.00;5030254;28;1257;-75
2022/01/15 09:43:15;;;;;;;;;;;;;;;-0.05;100.00;102330.13;5030118;28;706;-74
2022/01/15 09:45:43;;;;;;;;;;;;;;;-0.02;100.00;102330.09;5028822;28;946;-74
2022/01/15 09:48:09;;;;;;;;;;;;;;;0.01;100.00;102318.50;5028933;28;792;-75
2022/01/15 09:50:37;;;;;;;;;;;;;;;-0.07;100.00;102316.78;5029992;28;1993;-75
2022/01/15 09:53:04;;;;;;;;;;;;;;;-0.04;100.00;102315.84;5012119;28;819;-75
2022/01/15 09:55:30;;;;;;;;;;;;;;;0.01;100.00;102314.03;5030046;28;785;-75
2022/01/15 09:57:56;;;;;;;;;;;;;;;-0.03;100.00;102305.19;5029948;28;998;-75
2022/01/15 10:00:24;;;;;;;;;;;;;;;0.02;100.00;102315.81;5029878;28;1503;-74
2022/01/15 10:02:52;;;;;;;;;;;;;;;-0.01;100.00;102303.38;5029898;28;776;-74
2022/01/15 10:05:19;;;;;;;;;;;;;;;-0.01;100.00;102305.16;5029691;28;828;-75
2022/01/15 10:07:55;;;;;;;;;;;;;;;0.10;100.00;102297.88;5030334;28;772;-75
2022/01/15 10:10:22;;;;;;;;;;;;;;;0.20;100.00;102298.69;5031876;28;1910;-75
2022/01/15 10:12:48;;;;;;;;;;;;;;;0.27;100.00;102299.47;5034470;28;761;-75
2022/01/15 10:15:16;;;;;;;;;;;;;;;0.25;100.00;102291.47;5034069;28;779;-75
2022/01/15 10:17:43;;;;;;;;;;;;;;;0.19;100.00;102296.91;5033056;28;919;-75
2022/01/15 10:20:12;;;;;;;;;;;;;;;0.21;100.00;102297.75;5034072;28;1332;-75
2022/01/15 10:22:39;;;;;;;;;;;;;;;0.20;100.00;102296.00;5034176;28;776;-75
2022/01/15 10:25:07;;;;;;;;;;;;;;;0.15;100.00;102308.53;5033638;28;1034;-75
2022/01/15 10:27:34;;;;;;;;;;;;;;;0.21;100.00;102303.09;5022168;28;1174;-75
2022/01/15 10:30:01;;;;;;;;;;;;;;;0.28;100.00;102293.22;5012804;28;1429;-75
2022/01/15 10:32:28;;;;;;;;;;;;;;;0.21;100.00;102294.22;5013923;28;1914;-74
2022/01/15 10:34:55;;;;;;;;;;;;;;;0.29;100.00;102287.84;5013572;28;998;-75
2022/01/15 10:37:23;;;;;;;;;;;;;;;0.31;100.00;102291.41;5013779;28;959;-75
2022/01/15 10:39:57;;;;;;;;;;;;;;;0.32;100.00;102289.59;5014024;28;1401;-74
2022/01/15 10:42:24;;;;;;;;;;;;;;;0.30;100.00;102289.63;5013687;28;986;-74
2022/01/15 10:44:51;;;;;;;;;;;;;;;0.35;100.00;102281.56;5012961;28;884;-75
2022/01/15 10:47:18;;;;;;;;;;;;;;;0.30;100.00;102278.94;5013859;28;749;-74
2022/01/15 10:49:45;;;;;;;;;;;;;;;0.37;100.00;102274.38;5013107;28;986;-75
2022/01/15 10:52:13;;;;;;;;;;;;;;;0.44;100.00;102276.09;4995755;28;1916;-74
2022/01/15 10:54:58;;;;;;;;;;;;;;;0.41;100.00;102276.13;5012942;28;978;-74
2022/01/15 10:57:27;;;;;;;;;;;;;;;0.49;100.00;102276.91;5013337;28;892;-74
2022/01/15 10:59:57;;;;;;;;;;;;;;;0.52;100.00;102261.72;5013268;28;1391;-74
2022/01/15 11:02:23;;;;;;;;;;;;;;;0.67;100.00;102261.50;5013231;28;974;-75
2022/01/15 11:04:49;;;;;;;;;;;;;;;0.71;100.00;102263.22;5011425;28;1148;-74
2022/01/15 11:07:17;;;;;;;;;;;;;;;0.65;100.00;102264.19;5013317;28;1006;-75
2022/01/15 11:09:44;;;;;;;;;;;;;;;0.61;100.00;102245.56;5013257;28;709;-75
2022/01/15 11:12:11;;;;;;;;;;;;;;;0.46;100.00;102235.97;5011577;28;1996;-77
2022/01/15 11:14:38;;;;;;;;;;;;;;;0.45;100.00;102235.06;5011692;28;811;-73
2022/01/15 11:17:05;;;;;;;;;;;;;;;0.21;100.00;102228.31;4995124;28;1014;-74
2022/01/15 11:19:32;;;;;;;;;;;;;;;0.22;100.00;102239.91;5012686;28;1764;-74
2022/01/15 11:21:59;;;;;;;;;;;;;;;0.29;100.00;102250.44;5011018;28;1499;-74
2022/01/15 11:24:25;;;;;;;;;;;;;;;0.26;100.00;102250.50;5012727;28;971;-74
2022/01/15 11:26:55;;;;;;;;;;;;;;;0.26;100.00;102244.28;5017349;28;1144;-74
2022/01/15 11:29:21;;;;;;;;;;;;;;;0.30;100.00;102251.34;5032645;28;792;-73
2022/01/15 11:31:51;;;;;;;;;;;;;;;0.32;100.00;102252.19;5031046;28;1915;-74
2022/01/15 11:34:20;;;;;;;;;;;;;;;0.34;100.00;102253.06;5013801;28;2113;-73
2022/01/15 11:36:46;;;;;;;;;;;;;;;0.31;100.00;102253.13;5004947;28;992;-73
2022/01/15 11:39:13;;;;;;;;;;;;;;;0.28;100.00;102242.47;5012118;28;1242;-74
2022/01/15 11:41:41;;;;;;;;;;;;;;;0.40;100.00;102231.63;5033335;23;3548;-72
2022/01/15 11:44:13;;;;;;;;;;;;;;;0.41;100.00;102249.38;5035609;28;944;-74
2022/01/15 11:46:41;;;;;;;;;;;;;;;0.42;100.00;102245.81;5034308;28;986;-74
2022/01/15 11:49:26;;;;;;;;;;;;;;;0.40;100.00;102250.31;5034654;28;1019;-73
2022/01/15 11:51:53;;;;;;;;;;;;;;;0.34;100.00;102242.38;5016741;28;1918;-72
2022/01/15 11:54:19;;;;;;;;;;;;;;;0.26;100.00;102250.50;5034966;28;1081;-72
2022/01/15 11:56:48;;;;;;;;;;;;;;;0.19;100.00;102250.59;5034506;28;1017;-72
2022/01/15 11:59:33;;;;;;;;;;;;;;;0.17;100.00;102253.28;5017106;28;990;-74
2022/01/15 12:02:01;;;;;;;;;;;;;;;0.18;100.00;102256.88;5034625;28;1338;-74
2022/01/15 12:04:30;;;;;;;;;;;;;;;0.29;100.00;102249.56;5034303;28;875;-73
2022/01/15 12:07:15;;;;;;;;;;;;;;;0.27;100.00;102243.38;5016937;28;851;-72
2022/01/15 12:09:42;;;;;;;;;;;;;;;0.14;100.00;102251.53;5034973;28;1034;-72
2022/01/15 12:12:29;;;;;;;;;;;;;;;0.25;100.00;102250.53;5034501;28;1932;-71
2022/01/15 12:14:58;;;;;;;;;;;;;;;0.34;100.00;102247.72;5034585;28;1670;-73
2022/01/15 12:17:27;;;;;;;;;;;;;;;0.37;100.00;102236.13;5034818;28;801;-72
2022/01/15 12:19:55;;;;;;;;;;;;;;;0.32;100.00;102228.16;5034544;28;895;-71
2022/01/15 12:22:34;;;;;;;;;;;;;;;0.25;100.00;102238.03;5034634;28;1298;-74
2022/01/15 12:25:04;;;;;;;;;;;;;;;0.24;100.00;102230.06;5017102;28;1074;-72
2022/01/15 12:27:31;;;;;;;;;;;;;;;0.18;100.00;102233.69;5034751;28;713;-74
2022/01/15 12:30:00;;;;;;;;;;;;;;;0.23;100.00;102228.28;5034531;28;1068;-73
2022/01/15 12:32:28;;;;;;;;;;;;;;;0.26;100.00;102231.81;5033138;28;1922;-73
2022/01/15 12:34:56;;;;;;;;;;;;;;;0.22;100.00;102232.75;5034630;28;1006;-74
2022/01/15 12:37:22;;;;;;;;;;;;;;;0.23;100.00;102223.84;5034998;28;818;-72
2022/01/15 12:39:49;;;;;;;;;;;;;;;0.24;100.00;102225.63;5016433;28;816;-72
2022/01/15 12:42:17;;;;;;;;;;;;;;;0.23;100.00;102215.81;5016773;28;1306;-73
2022/01/15 12:44:44;;;;;;;;;;;;;;;0.21;100.00;102208.75;5033624;28;958;-73
2022/01/15 12:47:10;;;;;;;;;;;;;;;0.25;100.00;102205.97;5015531;28;1152;-73
2022/01/15 12:49:38;;;;;;;;;;;;;;;0.28;100.00;102195.28;5034157;28;694;-74
2022/01/15 12:52:21;;;;;;;;;;;;;;;0.18;100.00;102200.78;5033733;28;1984;-73
2022/01/15 12:54:49;;;;;;;;;;;;;;;0.16;100.00;102211.47;5033508;28;938;-73
2022/01/15 12:57:16;;;;;;;;;;;;;;;0.07;100.00;102214.28;5034847;28;982;-72
2022/01/15 12:59:42;;;;;;;;;;;;;;;0.10;100.00;102207.09;5033662;28;1066;-72